View Park, California
Current Conditions -  °F | °C
As of 4:47 PM on Tuesday 27 Jan 2015 (Local Time) from KCQT Reporting Station
Clear Clear  
Wind Chill: 67°   Ceiling: Unl
Heat Index: 67°   Visibility: 10mi
Dew Point: 49°   Wind: 0mph
Humidity: 52%   Direction: NA
Pressure: 30.14"   Gusts: NA
Location:  33.9885°N, 118.334°W
Report Text: KCQT 280047Z AUTO 00000KT 10SM CLR 19/09 A3014 RMK AO2 SLP206 T01940094 $
Loading
Personal Weather Stations






























Interactive Weather Map New forecast layout! Learn more

10-Day Weather Forecast

Advertisements
Track Severe Weather on mobile